createdAt,value
2018-04-12T00:01:15.756Z,95.26
2018-04-12T00:02:43.068Z,95.40
2018-04-12T00:04:10.270Z,95.39
2018-04-12T00:05:33.684Z,95.48
2018-04-12T00:07:04.858Z,95.42
2018-04-12T00:08:32.172Z,95.47
2018-04-12T00:09:59.364Z,95.42
2018-04-12T00:11:22.696Z,95.57
2018-04-12T00:12:53.957Z,95.69
2018-04-12T00:14:21.200Z,95.65
2018-04-12T00:15:44.606Z,95.69
2018-04-12T00:17:11.816Z,95.72
2018-04-12T00:18:38.653Z,95.77
2018-04-12T00:20:05.761Z,95.75
2018-04-12T00:21:33.011Z,95.84
2018-04-12T00:23:00.146Z,95.87
2018-04-12T00:24:27.280Z,95.83
2018-04-12T00:25:54.421Z,95.87
2018-04-12T00:27:21.686Z,95.89
2018-04-12T00:28:48.806Z,95.89
2018-04-12T00:30:19.982Z,95.96
2018-04-12T00:31:43.349Z,96.01
2018-04-12T00:33:10.470Z,96.07
2018-04-12T00:34:41.547Z,96.12
2018-04-12T00:36:08.735Z,96.14
2018-04-12T00:37:35.906Z,96.15
2018-04-12T00:38:59.232Z,96.19
2018-04-12T00:40:30.280Z,96.31
2018-04-12T00:41:57.300Z,96.42
2018-04-12T00:43:24.563Z,96.43
2018-04-12T00:44:51.628Z,96.42
2018-04-12T00:46:18.906Z,96.50
2018-04-12T00:47:41.927Z,96.50
2018-04-12T00:49:12.969Z,96.51
2018-04-12T00:50:36.263Z,96.57
2018-04-12T00:52:03.454Z,96.57
2018-04-12T00:53:34.435Z,96.58
2018-04-12T00:54:57.726Z,96.50
2018-04-12T00:56:24.655Z,96.53
2018-04-12T00:57:55.857Z,96.56
2018-04-12T00:59:19.136Z,96.63
2018-04-12T01:00:46.224Z,96.61
2018-04-12T01:02:13.412Z,96.63
2018-04-12T01:03:40.546Z,96.75
2018-04-12T01:05:07.740Z,96.67
2018-04-12T01:06:34.729Z,96.76
2018-04-12T01:08:01.733Z,96.76
2018-04-12T01:09:28.933Z,96.72
2018-04-12T01:10:56.123Z,96.67
2018-04-12T01:12:23.287Z,96.72
2018-04-12T01:13:54.323Z,96.78
2018-04-12T01:15:17.627Z,96.71
2018-04-12T01:16:44.605Z,96.88
2018-04-12T01:19:38.924Z,96.78
2018-04-12T01:21:06.190Z,96.83
2018-04-12T01:22:33.295Z,96.78
2018-04-12T01:24:00.448Z,96.70
2018-04-12T01:25:31.666Z,96.67
2018-04-12T01:26:58.882Z,96.62
2018-04-12T01:28:25.677Z,96.64
2018-04-12T01:29:48.513Z,96.63
2018-04-12T01:31:19.612Z,96.58
2018-04-12T01:32:46.900Z,96.56
2018-04-12T01:34:10.001Z,96.57
2018-04-12T01:35:37.170Z,96.60
2018-04-12T01:37:04.425Z,96.67
2018-04-12T01:38:35.848Z,96.72
2018-04-12T01:39:59.199Z,96.80
2018-04-12T01:41:30.293Z,96.94
2018-04-12T01:42:57.572Z,96.92
2018-04-12T01:44:20.624Z,97.02
2018-04-12T01:45:51.745Z,97.05
2018-04-12T01:47:15.008Z,97.05
2018-04-12T01:48:46.000Z,96.91
2018-04-12T01:50:09.094Z,96.95
2018-04-12T01:51:36.324Z,97.01
2018-04-12T01:53:03.510Z,97.03
2018-04-12T01:54:30.876Z,97.06
2018-04-12T01:56:02.187Z,97.07
2018-04-12T01:57:29.381Z,97.14
2018-04-12T01:58:56.615Z,97.27
2018-04-12T02:00:23.781Z,97.28
2018-04-12T02:01:50.977Z,97.27
2018-04-12T02:03:18.123Z,97.39
2018-04-12T02:04:45.162Z,97.33
2018-04-12T02:06:12.259Z,97.40
2018-04-12T02:07:39.262Z,97.51
2018-04-12T02:09:06.429Z,97.54
2018-04-12T02:10:29.773Z,97.46
2018-04-12T02:11:57.063Z,97.56
2018-04-12T02:13:24.230Z,97.48
2018-04-12T02:14:55.243Z,97.35
2018-04-12T02:16:22.597Z,97.44
2018-04-12T02:17:49.762Z,97.26
2018-04-12T02:19:16.907Z,97.31
2018-04-12T02:20:40.187Z,97.26
2018-04-12T02:22:11.314Z,97.45
2018-04-12T02:23:38.400Z,97.57
2018-04-12T02:25:05.686Z,97.57
2018-04-12T02:26:32.982Z,97.57
2018-04-12T02:28:00.206Z,97.62
2018-04-12T02:29:27.400Z,97.72
2018-04-12T02:30:54.743Z,97.57
2018-04-12T02:32:18.084Z,97.56
2018-04-12T02:33:49.161Z,97.58
2018-04-12T02:35:16.364Z,97.59
2018-04-12T02:36:43.461Z,97.53
2018-04-12T02:38:06.781Z,97.58
2018-04-12T02:39:37.798Z,97.60
2018-04-12T02:41:05.080Z,97.59
2018-04-12T02:42:32.469Z,97.51
2018-04-12T02:43:59.810Z,97.61
2018-04-12T02:45:22.888Z,97.53
2018-04-12T02:46:54.259Z,97.55
2018-04-12T02:48:21.429Z,97.48
2018-04-12T02:49:48.567Z,97.60
2018-04-12T02:51:11.898Z,97.53
2018-04-12T02:52:39.001Z,97.62
2018-04-12T02:54:10.066Z,97.72
2018-04-12T02:55:37.374Z,97.67
2018-04-12T02:57:04.509Z,97.77
2018-04-12T02:58:27.920Z,97.79
2018-04-12T02:59:54.941Z,97.70
2018-04-12T03:01:22.217Z,97.62
2018-04-12T03:02:49.493Z,97.51
2018-04-12T03:04:16.926Z,97.55
2018-04-12T03:05:48.038Z,97.68
2018-04-12T03:07:15.161Z,97.74
2018-04-12T03:08:42.330Z,97.74
2018-04-12T03:10:09.545Z,97.69
2018-04-12T03:11:36.873Z,97.86
2018-04-12T03:13:03.991Z,97.77
2018-04-12T03:14:27.134Z,97.73
2018-04-12T03:15:54.427Z,97.66
2018-04-12T03:17:25.517Z,97.67
2018-04-12T03:18:52.724Z,97.56
2018-04-12T03:20:19.987Z,97.57
2018-04-12T03:21:43.235Z,97.62
2018-04-12T03:23:10.475Z,97.65
2018-04-12T03:24:37.624Z,97.52
2018-04-12T03:26:08.840Z,97.52
2018-04-12T03:27:32.174Z,97.57
2018-04-12T03:28:59.488Z,97.63
2018-04-12T03:30:30.742Z,97.75
2018-04-12T03:31:53.953Z,97.89
2018-04-12T03:33:24.890Z,98.03
2018-04-12T03:34:48.152Z,98.15
2018-04-12T03:36:15.301Z,98.17
2018-04-12T03:37:42.526Z,98.19
2018-04-12T03:39:13.646Z,98.22
2018-04-12T03:40:40.889Z,98.33
2018-04-12T03:42:03.883Z,98.30
2018-04-12T03:43:35.141Z,98.36
2018-04-12T03:44:58.519Z,98.33
2018-04-12T03:46:25.908Z,98.33
2018-04-12T03:47:53.097Z,98.30
2018-04-12T03:49:20.296Z,98.30
2018-04-12T03:50:51.352Z,98.37
2018-04-12T03:52:14.510Z,98.46
2018-04-12T03:53:45.656Z,98.46
2018-04-12T03:55:12.692Z,98.55
2018-04-12T03:56:39.722Z,98.59
2018-04-12T03:58:03.053Z,98.57
2018-04-12T04:00:57.329Z,98.44
2018-04-12T04:02:24.579Z,98.42
2018-04-12T04:03:51.811Z,98.45
2018-04-12T04:05:23.087Z,98.47
2018-04-12T04:06:50.407Z,98.61
2018-04-12T04:08:17.630Z,98.57
2018-04-12T04:09:40.843Z,98.52
2018-04-12T04:11:12.127Z,98.53
2018-04-12T04:12:35.294Z,98.50
2018-04-12T04:14:06.391Z,98.61
2018-04-12T04:15:33.504Z,98.48
2018-04-12T04:16:56.888Z,98.41
2018-04-12T04:18:24.059Z,98.57
2018-04-12T04:19:55.297Z,98.62
2018-04-12T04:21:18.594Z,98.60
2018-04-12T04:22:49.830Z,98.64
2018-04-12T04:24:17.017Z,98.81
2018-04-12T04:25:44.364Z,98.80
2018-04-12T04:27:11.500Z,98.78
2018-04-12T04:28:34.579Z,98.87
2018-04-12T04:30:01.922Z,98.98
2018-04-12T04:31:29.176Z,99.05
2018-04-12T04:32:56.180Z,99.15
2018-04-12T04:34:27.405Z,99.12
2018-04-12T04:35:54.610Z,99.11
2018-04-12T04:37:21.893Z,99.11
2018-04-12T04:38:45.205Z,99.22
2018-04-12T04:40:12.390Z,99.26
2018-04-12T04:41:43.674Z,99.28
2018-04-12T04:43:06.828Z,99.28
2018-04-12T04:44:33.768Z,99.34
2018-04-12T04:46:01.019Z,99.37
2018-04-12T04:47:28.347Z,99.37
2018-04-12T04:48:55.714Z,99.33
2018-04-12T04:50:22.957Z,99.39
2018-04-12T04:51:49.969Z,99.36
2018-04-12T04:53:17.211Z,99.30
2018-04-12T04:54:44.479Z,99.27
2018-04-12T04:56:11.484Z,99.36
2018-04-12T04:57:38.553Z,99.42
2018-04-12T04:59:05.636Z,99.36
2018-04-12T05:00:36.852Z,99.43
2018-04-12T05:02:04.164Z,99.41
2018-04-12T05:03:27.475Z,99.42
2018-04-12T05:04:54.836Z,99.49
2018-04-12T05:06:25.799Z,99.50
2018-04-12T05:07:52.909Z,99.53
2018-04-12T05:09:20.167Z,99.54
2018-04-12T05:10:47.513Z,99.49
2018-04-12T05:12:14.781Z,99.45
2018-04-12T05:13:38.106Z,99.46
2018-04-12T05:15:05.436Z,99.45
2018-04-12T05:16:36.593Z,99.47
2018-04-12T05:18:03.726Z,99.30
2018-04-12T05:19:27.001Z,99.26
2018-04-12T05:20:58.305Z,99.15
2018-04-12T05:22:21.608Z,99.20
2018-04-12T05:23:48.845Z,99.13
2018-04-12T05:25:16.022Z,99.05
2018-04-12T05:26:43.257Z,98.98
2018-04-12T05:28:10.603Z,98.89
2018-04-12T05:29:41.828Z,98.85
2018-04-12T05:31:05.039Z,98.72
2018-04-12T05:32:36.301Z,98.53
2018-04-12T05:34:03.543Z,98.38
2018-04-12T05:35:26.926Z,98.30
2018-04-12T05:36:58.226Z,98.14
2018-04-12T05:38:21.473Z,97.99
2018-04-12T05:39:48.632Z,97.81
2018-04-12T05:41:19.935Z,97.38
2018-04-12T05:42:47.057Z,97.08
2018-04-12T05:44:10.287Z,96.60
2018-04-12T05:45:41.565Z,96.17
2018-04-12T05:47:04.111Z,95.62
2018-04-12T05:48:31.452Z,94.90
2018-04-12T05:50:02.725Z,94.54
2018-04-12T05:51:26.077Z,93.70
2018-04-12T05:52:53.422Z,93.04
2018-04-12T05:54:24.599Z,92.77
2018-04-12T05:55:47.943Z,92.62
2018-04-12T05:57:15.080Z,92.57
2018-04-12T05:58:46.523Z,92.17
2018-04-12T06:00:09.636Z,92.25
2018-04-12T06:01:36.973Z,92.31
2018-04-12T06:03:04.046Z,92.08
2018-04-12T06:04:30.981Z,91.98
2018-04-12T06:06:02.247Z,92.12
2018-04-12T06:07:25.494Z,92.07
2018-04-12T06:08:56.811Z,91.91
2018-04-12T06:10:20.094Z,92.03
2018-04-12T06:11:51.161Z,91.64
2018-04-12T06:13:18.305Z,91.47
2018-04-12T06:14:41.673Z,91.30
2018-04-12T06:16:08.912Z,91.22
2018-04-12T06:17:36.042Z,90.99
2018-04-12T06:19:03.399Z,91.06
2018-04-12T06:20:34.517Z,90.86
2018-04-12T06:21:57.815Z,90.85
2018-04-12T06:23:25.121Z,90.83
2018-04-12T06:24:56.548Z,90.57
2018-04-12T06:26:19.500Z,90.56
2018-04-12T06:27:46.867Z,90.29
2018-04-12T06:29:18.226Z,90.61
2018-04-12T06:30:41.463Z,90.49
2018-04-12T06:32:12.708Z,90.68
2018-04-12T06:33:40.017Z,90.15
2018-04-12T06:35:07.293Z,90.14
2018-04-12T06:36:30.721Z,90.29
2018-04-12T06:37:58.037Z,89.91
2018-04-12T06:39:25.274Z,90.16
2018-04-12T06:40:52.632Z,89.65
2018-04-12T06:42:20.121Z,89.15
2018-04-12T06:43:47.360Z,88.77
2018-04-12T06:45:14.580Z,89.08
2018-04-12T06:46:45.625Z,89.01
2018-04-12T06:48:17.036Z,89.10
2018-04-12T06:49:36.019Z,89.27
2018-04-12T06:51:03.538Z,89.25
2018-04-12T06:52:31.066Z,89.07
2018-04-12T06:53:58.558Z,88.41
2018-04-12T06:55:29.794Z,88.52
2018-04-12T06:56:52.939Z,88.49
2018-04-12T06:58:24.239Z,88.09
2018-04-12T06:59:51.150Z,88.74
2018-04-12T07:01:14.314Z,88.44
2018-04-12T07:02:45.490Z,88.42
2018-04-12T07:04:08.949Z,88.93
2018-04-12T07:05:40.184Z,88.60
2018-04-12T07:07:03.442Z,88.34
2018-04-12T07:08:34.737Z,88.75
2018-04-12T07:09:58.055Z,88.85
2018-04-12T07:11:29.141Z,88.63
2018-04-12T07:12:56.368Z,89.07
2018-04-12T07:14:19.639Z,89.23
2018-04-12T07:15:50.907Z,89.07
2018-04-12T07:17:14.146Z,89.02
2018-04-12T07:18:41.104Z,89.06
2018-04-12T07:20:12.145Z,89.54
2018-04-12T07:21:35.252Z,88.88
2018-04-12T07:23:02.557Z,88.69
2018-04-12T07:24:33.494Z,89.67
2018-04-12T07:25:56.995Z,88.70
2018-04-12T07:27:28.242Z,88.06
2018-04-12T07:28:51.343Z,87.84
2018-04-12T07:30:18.329Z,88.41
2018-04-12T07:31:45.523Z,89.04
2018-04-12T07:33:12.447Z,88.76
2018-04-12T07:34:43.394Z,87.67
2018-04-12T07:36:06.607Z,88.95
2018-04-12T07:37:33.723Z,88.33
2018-04-12T07:39:00.809Z,87.45
2018-04-12T07:40:27.652Z,87.49
2018-04-12T07:41:58.935Z,86.82
2018-04-12T07:43:22.241Z,87.85
2018-04-12T07:44:49.466Z,88.00
2018-04-12T07:46:16.492Z,88.01
2018-04-12T07:47:47.692Z,87.47
2018-04-12T07:49:14.729Z,87.67
2018-04-12T07:50:38.012Z,86.86
2018-04-12T07:52:05.442Z,87.43
2018-04-12T07:53:32.429Z,86.81
2018-04-12T07:54:59.739Z,86.23
2018-04-12T07:56:26.993Z,86.28
2018-04-12T07:57:54.419Z,86.74
2018-04-12T07:59:21.480Z,86.69
2018-04-12T08:00:48.688Z,86.56
2018-04-12T08:02:15.948Z,85.99
2018-04-12T08:03:43.160Z,85.35
2018-04-12T08:05:14.696Z,85.61
2018-04-12T08:06:41.537Z,86.27
2018-04-12T08:08:05.153Z,86.47
2018-04-12T08:09:31.836Z,85.92
2018-04-12T08:10:58.850Z,85.22
2018-04-12T08:12:26.139Z,85.67
2018-04-12T08:13:53.085Z,85.77
2018-04-12T08:15:24.457Z,84.86
2018-04-12T08:16:51.722Z,84.24
2018-04-12T08:18:14.911Z,83.59
2018-04-12T08:19:46.025Z,85.11
2018-04-12T08:21:09.302Z,84.89
2018-04-12T08:22:36.288Z,84.21
2018-04-12T08:24:03.130Z,84.04
2018-04-12T08:25:34.185Z,83.60
2018-04-12T08:27:01.271Z,83.89
2018-04-12T08:28:24.401Z,83.69
2018-04-12T08:29:55.566Z,82.89
2018-04-12T08:31:22.608Z,82.92
2018-04-12T08:32:49.847Z,82.13
2018-04-12T08:34:17.068Z,83.08
2018-04-12T08:35:40.317Z,82.56
2018-04-12T08:37:07.401Z,83.47
2018-04-12T08:38:34.451Z,84.26
2018-04-12T08:40:05.839Z,83.42
2018-04-12T08:41:29.276Z,83.23
2018-04-12T08:43:00.573Z,83.58
2018-04-12T08:44:23.833Z,83.07
2018-04-12T08:45:51.268Z,83.25
2018-04-12T08:47:18.405Z,83.22
2018-04-12T08:48:49.741Z,84.34
2018-04-12T08:50:16.893Z,83.86
2018-04-12T08:51:44.422Z,83.49
2018-04-12T08:53:07.680Z,84.08
2018-04-12T08:54:34.950Z,83.36
2018-04-12T08:56:06.287Z,82.53
2018-04-12T08:57:29.634Z,82.11
2018-04-12T08:58:57.091Z,82.25
2018-04-12T09:00:24.396Z,83.02
2018-04-12T09:01:55.991Z,82.88
2018-04-12T09:03:19.326Z,82.56
2018-04-12T09:04:50.536Z,81.34
2018-04-12T09:06:18.035Z,80.50
2018-04-12T09:07:41.282Z,82.52
2018-04-12T09:09:12.550Z,82.14
2018-04-12T09:10:39.844Z,81.47
2018-04-12T09:12:03.281Z,81.14
2018-04-12T09:13:34.676Z,79.06
2018-04-12T09:15:01.950Z,79.90
2018-04-12T09:16:25.339Z,79.68
2018-04-12T09:17:52.814Z,80.31
2018-04-12T09:19:20.050Z,79.56
2018-04-12T09:20:47.162Z,80.08
2018-04-12T09:22:14.272Z,80.60
2018-04-12T09:23:41.538Z,80.04
2018-04-12T09:25:08.969Z,79.47
2018-04-12T09:26:40.051Z,79.25
2018-04-12T09:28:07.286Z,79.68
2018-04-12T09:29:30.850Z,78.60
2018-04-12T09:30:58.148Z,79.18
2018-04-12T09:32:29.557Z,78.81
2018-04-12T09:33:53.078Z,79.13
2018-04-12T09:35:24.565Z,79.38
2018-04-12T09:36:51.770Z,79.09
2018-04-12T09:38:15.053Z,79.02
2018-04-12T09:39:42.318Z,78.50
2018-04-12T09:41:09.850Z,78.36
2018-04-12T09:42:41.098Z,78.28
2018-04-12T09:44:08.367Z,78.29
2018-04-12T09:45:31.486Z,78.05
2018-04-12T09:46:58.949Z,77.48
2018-04-12T09:48:30.282Z,76.76
2018-04-12T09:49:57.617Z,77.19
2018-04-12T09:51:21.089Z,78.23
2018-04-12T09:52:52.231Z,76.55
2018-04-12T09:54:15.440Z,76.69
2018-04-12T09:55:42.636Z,74.96
2018-04-12T09:57:10.191Z,77.78
2018-04-12T09:58:41.332Z,77.43
2018-04-12T10:00:04.582Z,76.92
2018-04-12T10:01:35.659Z,76.69
2018-04-12T10:02:59.147Z,75.73
2018-04-12T10:04:26.511Z,75.89
2018-04-12T10:05:57.927Z,76.21
2018-04-12T10:07:25.296Z,75.29
2018-04-12T10:08:48.829Z,76.13
2018-04-12T10:10:16.123Z,73.85
2018-04-12T10:11:43.520Z,75.62
2018-04-12T10:13:10.757Z,74.74
2018-04-12T10:14:37.916Z,75.30
2018-04-12T10:16:09.229Z,75.75
2018-04-12T10:17:32.772Z,75.88
2018-04-12T10:19:00.008Z,76.26
2018-04-12T10:20:31.420Z,75.23
2018-04-12T10:21:58.759Z,75.80
2018-04-12T10:23:22.103Z,76.24
2018-04-12T10:24:53.465Z,76.46
2018-04-12T10:26:20.681Z,76.81
2018-04-12T10:27:47.779Z,77.27
2018-04-12T10:29:11.062Z,78.48
2018-04-12T10:30:42.347Z,78.42
2018-04-12T10:32:05.702Z,79.21
2018-04-12T10:33:33.145Z,78.38
2018-04-12T10:35:04.535Z,77.83
2018-04-12T10:36:27.948Z,78.15
2018-04-12T10:37:59.275Z,77.79
2018-04-12T10:39:22.712Z,76.87
2018-04-12T10:40:53.965Z,76.79
2018-04-12T10:42:21.351Z,76.20
2018-04-12T10:43:44.845Z,76.87
2018-04-12T10:45:16.223Z,75.26
2018-04-12T10:46:43.512Z,77.46
2018-04-12T10:48:10.722Z,76.51
2018-04-12T10:49:33.934Z,75.29
2018-04-12T10:51:01.327Z,75.75
2018-04-12T10:52:28.789Z,75.21
2018-04-12T10:53:56.214Z,77.31
2018-04-12T10:55:23.442Z,77.61
2018-04-12T10:56:50.593Z,75.77
2018-04-12T10:58:21.918Z,76.11
2018-04-12T10:59:49.286Z,76.16
2018-04-12T11:01:12.630Z,76.24
2018-04-12T11:02:43.953Z,76.33
2018-04-12T11:04:07.483Z,76.94
2018-04-12T11:05:38.817Z,77.02
2018-04-12T11:07:06.130Z,76.92
2018-04-12T11:08:33.521Z,76.20
2018-04-12T11:09:56.704Z,75.42
2018-04-12T11:11:23.968Z,75.67
2018-04-12T11:12:51.397Z,74.99
2018-04-12T11:14:22.669Z,74.89
2018-04-12T11:15:50.172Z,75.13
2018-04-12T11:17:13.567Z,74.73
2018-04-12T11:18:44.805Z,74.50
2018-04-12T11:20:12.150Z,74.46
2018-04-12T11:21:39.372Z,74.93
2018-04-12T11:23:02.736Z,74.64
2018-04-12T11:24:30.303Z,74.69
2018-04-12T11:26:01.760Z,75.82
2018-04-12T11:27:29.087Z,76.06
2018-04-12T11:28:56.501Z,75.47
2018-04-12T11:30:20.149Z,75.22
2018-04-12T11:31:51.268Z,75.89
2018-04-12T11:33:14.802Z,75.66
2018-04-12T11:34:42.301Z,75.71
2018-04-12T11:36:09.559Z,75.75
2018-04-12T11:37:36.927Z,75.38
2018-04-12T11:39:04.182Z,76.57
2018-04-12T11:40:35.663Z,76.21
2018-04-12T11:41:58.897Z,75.69
2018-04-12T11:43:30.311Z,76.37
2018-04-12T11:44:57.857Z,75.95
2018-04-12T11:46:25.013Z,76.57
2018-04-12T11:47:52.387Z,78.18
2018-04-12T11:49:15.704Z,77.05
2018-04-12T11:50:43.050Z,77.71
2018-04-12T11:52:14.450Z,77.61
2018-04-12T11:53:41.663Z,77.22
2018-04-12T11:55:04.943Z,76.97
2018-04-12T11:56:32.553Z,77.45
2018-04-12T11:58:03.383Z,76.94
2018-04-12T11:59:26.740Z,75.59
2018-04-12T12:00:54.306Z,75.19
2018-04-12T12:02:25.555Z,76.93
2018-04-12T12:03:53.610Z,74.53
2018-04-12T12:05:16.125Z,74.91
2018-04-12T12:06:43.512Z,73.95
2018-04-12T12:08:10.846Z,72.98
2018-04-12T12:09:42.305Z,72.11
2018-04-12T12:11:09.583Z,71.74
2018-04-12T12:12:36.860Z,71.75
2018-04-12T12:14:00.357Z,70.79
2018-04-12T12:15:31.691Z,71.93
2018-04-12T12:16:59.216Z,71.24
2018-04-12T12:18:26.504Z,71.74
2018-04-12T12:19:53.974Z,70.97
2018-04-12T12:21:17.288Z,71.35
2018-04-12T12:22:48.676Z,70.43
2018-04-12T12:24:11.986Z,70.73
2018-04-12T12:25:39.444Z,70.78
2018-04-12T12:27:10.777Z,71.59
2018-04-12T12:28:34.229Z,72.92
2018-04-12T12:30:01.431Z,70.61
2018-04-12T12:31:32.882Z,72.81
2018-04-12T12:32:56.152Z,71.89
2018-04-12T12:34:23.570Z,71.46
2018-04-12T12:35:54.688Z,70.87
2018-04-12T12:37:18.157Z,73.62
2018-04-12T12:38:49.539Z,73.09
2018-04-12T12:40:16.810Z,72.48
2018-04-12T12:41:40.264Z,71.70
2018-04-12T12:43:07.596Z,69.64
2018-04-12T12:44:38.883Z,71.68
2018-04-12T12:46:02.328Z,70.11
2018-04-12T12:47:29.664Z,71.10
2018-04-12T12:48:57.063Z,71.73
2018-04-12T12:50:24.482Z,72.25
2018-04-12T12:51:51.913Z,71.63
2018-04-12T12:53:23.361Z,72.07
2018-04-12T12:54:46.727Z,72.04
2018-04-12T12:56:17.885Z,72.53
2018-04-12T12:57:41.302Z,73.27
2018-04-12T12:59:08.552Z,73.94
2018-04-12T13:00:35.817Z,74.42
2018-04-12T13:02:03.183Z,74.83
2018-04-12T13:03:30.591Z,75.81
2018-04-12T13:04:58.062Z,75.64
2018-04-12T13:06:25.521Z,75.82
2018-04-12T13:07:56.916Z,76.70
2018-04-12T13:09:24.147Z,76.43
2018-04-12T13:10:51.495Z,76.12
2018-04-12T13:12:14.964Z,76.57
2018-04-12T13:13:42.304Z,77.83
2018-04-12T13:15:09.622Z,77.80
2018-04-12T13:16:40.818Z,77.58
2018-04-12T13:18:07.902Z,77.92
2018-04-12T13:19:31.268Z,77.03
2018-04-12T13:20:58.676Z,77.11
2018-04-12T13:22:25.931Z,77.09
2018-04-12T13:23:53.274Z,78.00
2018-04-12T13:25:20.506Z,77.65
2018-04-12T13:26:51.770Z,78.14
2018-04-12T13:28:19.122Z,78.48
2018-04-12T13:29:46.513Z,77.72
2018-04-12T13:31:09.950Z,78.51
2018-04-12T13:32:41.364Z,77.51
2018-04-12T13:34:08.418Z,77.76
2018-04-12T13:35:36.782Z,77.52
2018-04-12T13:37:02.994Z,78.72
2018-04-12T13:38:30.308Z,77.84
2018-04-12T13:39:53.525Z,76.64
2018-04-12T13:41:20.926Z,76.70
2018-04-12T13:42:52.366Z,76.26
2018-04-12T13:44:15.807Z,76.82
2018-04-12T13:45:47.193Z,75.72
2018-04-12T13:47:14.608Z,77.04
2018-04-12T13:48:37.891Z,75.93
2018-04-12T13:50:05.232Z,77.22
2018-04-12T13:51:36.779Z,77.16
2018-04-12T13:53:03.922Z,77.83
2018-04-12T13:54:27.090Z,77.27
2018-04-12T13:55:58.432Z,77.77
2018-04-12T13:57:21.549Z,77.09
2018-04-12T13:58:52.834Z,78.13
2018-04-12T14:00:20.036Z,78.31
2018-04-12T14:01:43.504Z,77.53
2018-04-12T14:03:14.591Z,78.06
2018-04-12T14:04:37.866Z,78.19
2018-04-12T14:06:05.191Z,77.90
2018-04-12T14:07:36.577Z,78.17
2018-04-12T14:08:59.972Z,78.79
2018-04-12T14:10:31.350Z,78.94
2018-04-12T14:11:54.787Z,79.34
2018-04-12T14:13:26.191Z,79.34
2018-04-12T14:14:53.625Z,79.93
2018-04-12T14:16:17.050Z,79.88
2018-04-12T14:17:44.395Z,79.95
2018-04-12T14:19:11.870Z,79.86
2018-04-12T14:20:39.158Z,79.66
2018-04-12T14:22:06.397Z,79.13
2018-04-12T14:23:34.040Z,79.11
2018-04-12T14:25:01.425Z,79.32
2018-04-12T14:26:32.782Z,78.56
2018-04-12T14:28:00.182Z,78.52
2018-04-12T14:29:23.505Z,78.90
2018-04-12T14:30:54.780Z,78.70
2018-04-12T14:32:22.208Z,79.30
2018-04-12T14:33:49.438Z,79.75
2018-04-12T14:35:16.705Z,79.31
2018-04-12T14:36:44.012Z,79.84
2018-04-12T14:38:11.207Z,79.06
2018-04-12T14:39:34.524Z,78.58
2018-04-12T14:41:01.897Z,78.64
2018-04-12T14:42:33.282Z,78.85
2018-04-12T14:43:56.536Z,78.21
2018-04-12T14:45:23.623Z,78.68
2018-04-12T14:46:55.054Z,78.96
2018-04-12T14:48:18.268Z,79.22
2018-04-12T14:49:49.567Z,78.20
2018-04-12T14:51:16.888Z,77.73
2018-04-12T14:52:40.336Z,77.47
2018-04-12T14:54:19.010Z,78.67
2018-04-12T14:55:34.904Z,76.88
2018-04-12T14:57:06.041Z,77.66
2018-04-12T14:58:29.340Z,77.33
2018-04-12T14:59:56.901Z,77.92
2018-04-12T15:01:28.113Z,78.18
2018-04-12T15:02:51.619Z,77.61
2018-04-12T15:04:19.109Z,77.86
2018-04-12T15:05:50.320Z,77.93
2018-04-12T15:07:13.490Z,78.23
2018-04-12T15:08:40.554Z,78.68
2018-04-12T15:10:11.804Z,78.75
2018-04-12T15:11:38.959Z,79.02
2018-04-12T15:13:06.445Z,78.43
2018-04-12T15:14:29.874Z,78.83
2018-04-12T15:15:57.121Z,78.55
2018-04-12T15:17:24.615Z,78.95
2018-04-12T15:18:55.936Z,79.08
2018-04-12T15:20:19.357Z,79.42
2018-04-12T15:21:46.845Z,79.48
2018-04-12T15:23:14.214Z,79.52
2018-04-12T15:24:45.340Z,79.82
2018-04-12T15:26:12.681Z,80.04
2018-04-12T15:27:39.877Z,80.66
2018-04-12T15:29:03.305Z,80.11
2018-04-12T15:30:30.473Z,80.44
2018-04-12T15:31:57.963Z,81.17
2018-04-12T15:33:29.140Z,81.33
2018-04-12T15:34:56.373Z,81.19
2018-04-12T15:36:19.474Z,81.08
2018-04-12T15:37:46.923Z,81.62
2018-04-12T15:39:18.266Z,81.25
2018-04-12T15:40:41.725Z,81.21
2018-04-12T15:42:09.064Z,81.08
2018-04-12T15:43:40.323Z,81.02
2018-04-12T15:45:03.569Z,80.36
2018-04-12T15:46:34.875Z,80.70
2018-04-12T15:47:58.281Z,80.88
2018-04-12T15:49:29.652Z,80.86
2018-04-12T15:50:53.027Z,81.13
2018-04-12T15:52:24.237Z,80.21
2018-04-12T15:53:47.344Z,80.28
2018-04-12T15:55:14.627Z,80.41
2018-04-12T15:56:41.769Z,80.08
2018-04-12T15:58:09.108Z,80.27
2018-04-12T15:59:36.534Z,80.26
2018-04-12T16:01:04.070Z,80.95
2018-04-12T16:02:35.376Z,79.77
2018-04-12T16:03:58.611Z,79.92
2018-04-12T16:05:25.952Z,80.19
2018-04-12T16:06:53.391Z,79.94
2018-04-12T16:08:20.770Z,79.70
2018-04-12T16:09:48.134Z,80.25
2018-04-12T16:11:19.493Z,80.23
2018-04-12T16:12:42.845Z,80.63
2018-04-12T16:14:10.271Z,81.04
2018-04-12T16:15:37.444Z,81.27
2018-04-12T16:17:04.620Z,81.72
2018-04-12T16:18:35.846Z,80.65
2018-04-12T16:19:59.422Z,81.14
2018-04-12T16:21:26.404Z,80.24
2018-04-12T16:22:53.726Z,80.13
2018-04-12T16:24:25.034Z,80.03
2018-04-12T16:25:48.409Z,80.48
2018-04-12T16:27:19.810Z,80.36
2018-04-12T16:28:47.091Z,80.25
2018-04-12T16:30:10.367Z,80.22
2018-04-12T16:31:37.575Z,80.47
2018-04-12T16:33:08.750Z,80.33
2018-04-12T16:34:32.053Z,80.75
2018-04-12T16:35:59.446Z,80.81
2018-04-12T16:37:26.812Z,80.40
2018-04-12T16:38:58.181Z,80.62
2018-04-12T16:40:21.412Z,80.73
2018-04-12T16:41:48.754Z,80.91
2018-04-12T16:43:20.092Z,81.00
2018-04-12T16:44:43.386Z,81.21
2018-04-12T16:46:10.781Z,81.34
2018-04-12T16:47:42.136Z,81.83
2018-04-12T16:49:05.333Z,81.88
2018-04-12T16:50:32.614Z,82.23
2018-04-12T16:52:04.057Z,81.93
2018-04-12T16:53:31.466Z,82.00
2018-04-12T16:54:54.796Z,81.63
2018-04-12T16:56:26.271Z,81.81
2018-04-12T16:57:49.489Z,81.54
2018-04-12T16:59:16.799Z,81.96
2018-04-12T17:00:44.227Z,81.71
2018-04-12T17:02:15.481Z,82.21
2018-04-12T17:03:38.847Z,82.67
2018-04-12T17:05:09.834Z,82.95
2018-04-12T17:06:33.275Z,82.69
2018-04-12T17:08:04.559Z,82.97
2018-04-12T17:09:31.878Z,82.72
2018-04-12T17:10:59.172Z,82.82
2018-04-12T17:12:22.602Z,82.80
2018-04-12T17:13:54.010Z,82.77
2018-04-12T17:15:21.122Z,83.15
2018-04-12T17:16:44.488Z,83.23
2018-04-12T17:18:11.824Z,83.56
2018-04-12T17:19:39.074Z,83.56
2018-04-12T17:21:06.206Z,83.89
2018-04-12T17:22:37.617Z,84.14
2018-04-12T17:24:00.767Z,83.87
2018-04-12T17:25:28.105Z,83.89
2018-04-12T17:26:55.244Z,83.70
2018-04-12T17:28:26.472Z,83.75
2018-04-12T17:29:53.881Z,84.14
2018-04-12T17:31:17.270Z,84.27
2018-04-12T17:32:48.428Z,84.12
2018-04-12T17:34:11.566Z,84.07
2018-04-12T17:35:38.713Z,84.11
2018-04-12T17:37:06.002Z,84.47
2018-04-12T17:38:37.367Z,84.26
2018-04-12T17:40:00.722Z,84.49
2018-04-12T17:41:28.166Z,84.77
2018-04-12T17:42:55.516Z,84.64
2018-04-12T17:44:22.864Z,84.88
2018-04-12T17:45:49.976Z,85.06
2018-04-12T17:47:16.991Z,85.21
2018-04-12T17:48:44.274Z,85.32
2018-04-12T17:50:11.511Z,85.57
2018-04-12T17:51:38.659Z,85.73
2018-04-12T17:53:06.251Z,85.60
2018-04-12T17:54:37.530Z,85.79
2018-04-12T17:56:00.887Z,85.85
2018-04-12T17:57:28.027Z,85.96
2018-04-12T17:58:59.315Z,86.08
2018-04-12T18:00:22.776Z,86.18
2018-04-12T18:01:53.997Z,86.08
2018-04-12T18:03:17.376Z,86.14
2018-04-12T18:04:48.816Z,86.39
2018-04-12T18:06:16.036Z,86.52
2018-04-12T18:07:39.141Z,86.69
2018-04-12T18:09:10.332Z,86.74
2018-04-12T18:10:33.700Z,86.78
2018-04-12T18:12:01.141Z,86.75
2018-04-12T18:13:28.275Z,86.70
2018-04-12T18:14:55.675Z,87.03
2018-04-12T18:16:26.975Z,87.25
2018-04-12T18:17:50.252Z,87.25
2018-04-12T18:19:17.463Z,87.24
2018-04-12T18:20:44.883Z,87.19
2018-04-12T18:22:11.998Z,87.31
2018-04-12T18:23:43.314Z,87.38
2018-04-12T18:25:06.288Z,87.65
2018-04-12T18:26:37.555Z,87.60
2018-04-12T18:28:00.888Z,87.75
2018-04-12T18:29:28.352Z,88.08
2018-04-12T18:30:55.682Z,87.93
2018-04-12T18:32:22.921Z,87.69
2018-04-12T18:33:54.118Z,87.79
2018-04-12T18:35:21.283Z,87.61
2018-04-12T18:36:48.516Z,87.58
2018-04-12T18:38:11.921Z,87.66
2018-04-12T18:39:42.901Z,87.72
2018-04-12T18:41:06.004Z,88.03
2018-04-12T18:42:33.498Z,87.97
2018-04-12T18:44:00.621Z,88.06
2018-04-12T18:45:27.987Z,88.19
2018-04-12T18:46:59.283Z,88.08